createdAt,value
2023-03-26T00:02:47.236Z,97179.03
2023-03-26T00:07:49.037Z,97182.50
2023-03-26T00:12:51.095Z,97179.84
2023-03-26T00:17:54.331Z,97188.03
2023-03-26T00:22:56.260Z,97203.94
2023-03-26T00:27:59.332Z,97202.03
2023-03-26T00:33:02.141Z,97207.88
2023-03-26T00:38:04.347Z,97219.41
2023-03-26T00:43:19.194Z,97212.38
2023-03-26T00:48:28.940Z,97199.09
2023-03-26T00:53:39.030Z,97188.94
2023-03-26T00:58:41.740Z,97195.09
2023-03-26T01:03:57.074Z,97177.34
2023-03-26T01:09:17.148Z,97164.16
2023-03-26T01:14:25.130Z,97162.66
2023-03-26T01:19:38.202Z,97168.91
2023-03-26T01:24:41.575Z,97178.59
2023-03-26T01:29:53.577Z,97179.09
2023-03-26T01:35:14.199Z,97165.88
2023-03-26T01:40:25.528Z,97169.72
2023-03-26T01:45:30.388Z,97175.13
2023-03-26T01:50:32.184Z,97189.78
2023-03-26T01:56:29.569Z,97168.09
2023-03-26T02:02:02.210Z,97166.13
2023-03-26T02:07:14.995Z,97161.00
2023-03-26T02:12:18.822Z,97167.91
2023-03-26T02:17:24.354Z,97177.94
2023-03-26T02:22:30.004Z,97189.44
2023-03-26T02:27:34.057Z,97183.28
2023-03-26T02:32:36.289Z,97186.03
2023-03-26T02:37:39.569Z,97179.06
2023-03-26T02:42:51.249Z,97186.34
2023-03-26T02:47:53.545Z,97190.63
2023-03-26T02:53:17.008Z,97187.97
2023-03-26T02:58:25.387Z,97177.91
2023-03-26T03:03:27.879Z,97178.56
2023-03-26T03:09:02.906Z,97169.97
2023-03-26T03:14:10.652Z,97177.25
2023-03-26T03:19:13.547Z,97168.31
2023-03-26T03:24:18.764Z,97168.97
2023-03-26T03:29:23.795Z,97170.94
2023-03-26T03:34:25.755Z,97188.63
2023-03-26T03:39:27.601Z,97179.38
2023-03-26T03:44:29.869Z,97185.25
2023-03-26T03:49:32.189Z,97200.84
2023-03-26T03:54:34.037Z,97186.59
2023-03-26T03:59:58.305Z,97175.44
2023-03-26T04:05:04.577Z,97188.69
2023-03-26T04:10:08.798Z,97178.41
2023-03-26T04:15:44.055Z,97192.47
2023-03-26T04:20:46.832Z,97183.88
2023-03-26T04:25:56.694Z,97184.53
2023-03-26T04:31:15.811Z,97166.34
2023-03-26T04:36:28.470Z,97173.00
2023-03-26T04:41:32.577Z,97175.38
2023-03-26T04:46:43.762Z,97177.31
2023-03-26T04:51:57.722Z,97162.28
2023-03-26T04:57:37.864Z,97177.44
2023-03-26T05:02:49.812Z,97177.81
2023-03-26T05:07:53.107Z,97165.44
2023-03-26T05:12:56.447Z,97168.13
2023-03-26T05:18:18.595Z,97163.38
2023-03-26T05:23:27.095Z,97157.59
2023-03-26T05:28:41.680Z,97160.63
2023-03-26T05:33:51.196Z,97169.91
2023-03-26T05:38:53.441Z,97176.09
2023-03-26T05:44:13.696Z,97181.50
2023-03-26T05:49:15.780Z,97171.84
2023-03-26T05:54:17.763Z,97174.63
2023-03-26T05:59:38.137Z,97171.66
2023-03-26T06:05:09.951Z,97165.75
2023-03-26T06:10:30.449Z,97180.25
2023-03-26T06:15:32.399Z,97175.72
2023-03-26T06:20:36.222Z,97175.38
2023-03-26T06:25:45.727Z,97178.59
2023-03-26T06:31:10.984Z,97169.44
2023-03-26T06:36:18.037Z,97164.06
2023-03-26T06:41:23.543Z,97164.81
2023-03-26T06:46:43.495Z,97171.78
2023-03-26T06:52:04.525Z,97170.22
2023-03-26T06:57:24.778Z,97176.09
2023-03-26T07:02:58.442Z,97177.22
2023-03-26T07:08:18.764Z,97184.19
2023-03-26T07:13:40.259Z,97186.09
2023-03-26T07:19:00.774Z,97181.88
2023-03-26T07:24:14.012Z,97176.06
2023-03-26T07:29:48.823Z,97167.16
2023-03-26T07:35:06.031Z,97171.75
2023-03-26T07:40:47.893Z,97183.81
2023-03-26T07:46:13.576Z,97163.63
2023-03-26T07:51:26.590Z,97167.19
2023-03-26T07:56:58.707Z,97164.13
2023-03-26T08:02:47.108Z,97154.84
2023-03-26T08:08:23.140Z,97154.06
2023-03-26T08:13:54.031Z,97161.44
2023-03-26T08:19:07.893Z,97147.91
2023-03-26T08:24:22.963Z,97154.56
2023-03-26T08:29:32.863Z,97155.81
2023-03-26T08:34:34.702Z,97154.69
2023-03-26T08:39:38.900Z,97146.63
2023-03-26T08:45:02.282Z,97144.69
2023-03-26T08:50:10.454Z,97144.31
2023-03-26T08:55:12.591Z,97149.75
2023-03-26T09:00:34.326Z,97159.06
2023-03-26T09:06:11.081Z,97139.31
2023-03-26T09:11:21.878Z,97136.69
2023-03-26T09:16:42.690Z,97130.53
2023-03-26T09:22:03.505Z,97121.22
2023-03-26T09:27:36.375Z,97121.22
2023-03-26T09:32:56.376Z,97113.47
2023-03-26T09:38:30.639Z,97103.00
2023-03-26T09:43:51.484Z,97097.94
2023-03-26T09:49:15.890Z,97089.41
2023-03-26T09:55:20.748Z,97074.53
2023-03-26T10:00:28.583Z,97080.25
2023-03-26T10:06:02.930Z,97075.03
2023-03-26T10:11:28.040Z,97069.50
2023-03-26T10:16:44.875Z,97059.38
2023-03-26T10:22:11.661Z,97051.75
2023-03-26T10:27:16.482Z,97045.34
2023-03-26T10:32:24.311Z,97042.22
2023-03-26T10:37:37.252Z,97030.16
2023-03-26T10:43:05.475Z,97018.41
2023-03-26T10:48:42.701Z,97010.91
2023-03-26T10:54:16.946Z,96999.91
2023-03-26T10:59:19.356Z,96989.66
2023-03-26T11:04:55.022Z,96991.06
2023-03-26T11:10:12.493Z,96978.78
2023-03-26T11:15:36.066Z,96974.34
2023-03-26T11:20:50.625Z,96967.50
2023-03-26T11:25:52.825Z,96975.13
2023-03-26T11:31:20.922Z,96962.56
2023-03-26T11:36:31.769Z,96957.19
2023-03-26T11:41:33.569Z,96952.28
2023-03-26T11:46:45.743Z,96932.09
2023-03-26T11:51:48.637Z,96935.06
2023-03-26T11:57:10.437Z,96928.09
2023-03-26T12:02:23.755Z,96930.66
2023-03-26T12:07:35.767Z,96932.88
2023-03-26T12:12:41.468Z,96935.69
2023-03-26T12:17:43.472Z,96937.16
2023-03-26T12:22:47.897Z,96925.56
2023-03-26T12:27:49.745Z,96917.38
2023-03-26T12:32:56.578Z,96916.50
2023-03-26T12:38:22.773Z,96920.66
2023-03-26T12:44:55.429Z,96916.81
2023-03-26T12:49:11.605Z,96903.78
2023-03-26T12:54:23.874Z,96907.66
2023-03-26T12:59:49.909Z,96900.25
2023-03-26T13:05:40.417Z,96897.41
2023-03-26T13:10:48.230Z,96891.63
2023-03-26T13:15:57.090Z,96887.59
2023-03-26T13:21:23.865Z,96883.69
2023-03-26T13:27:01.189Z,96876.00
2023-03-26T13:32:18.655Z,96875.13
2023-03-26T13:37:46.115Z,96888.34
2023-03-26T13:43:03.111Z,96891.50
2023-03-26T13:48:13.108Z,96894.66
2023-03-26T13:53:25.506Z,96897.00
2023-03-26T13:59:13.377Z,96888.25
2023-03-26T14:04:37.248Z,96880.88
2023-03-26T14:09:57.340Z,96874.25
2023-03-26T14:15:02.235Z,96882.72
2023-03-26T14:20:25.659Z,96901.44
2023-03-26T14:25:36.061Z,96897.81
2023-03-26T14:30:48.256Z,96893.25
2023-03-26T14:36:04.762Z,96891.72
2023-03-26T14:41:24.191Z,96897.16
2023-03-26T14:46:41.345Z,96879.69
2023-03-26T14:52:13.649Z,96880.09
2023-03-26T14:57:34.413Z,96881.63
2023-03-26T15:02:39.306Z,96876.97
2023-03-26T15:07:56.383Z,96879.22
2023-03-26T15:13:43.458Z,96865.25
2023-03-26T15:19:10.395Z,96872.97
2023-03-26T15:24:27.719Z,96869.84
2023-03-26T15:29:38.690Z,96873.75
2023-03-26T15:35:05.970Z,96877.97
2023-03-26T15:40:17.056Z,96872.59
2023-03-26T15:45:31.096Z,96871.41
2023-03-26T15:50:45.995Z,96874.88
2023-03-26T15:56:09.090Z,96868.28
2023-03-26T16:01:41.593Z,96872.53
2023-03-26T16:06:59.319Z,96870.53
2023-03-26T16:12:30.127Z,96859.75
2023-03-26T16:18:15.854Z,96867.56
2023-03-26T16:23:28.718Z,96860.97
2023-03-26T16:28:45.382Z,96871.44
2023-03-26T16:33:56.276Z,96862.97
2023-03-26T16:39:04.747Z,96857.97
2023-03-26T16:44:16.867Z,96862.22
2023-03-26T16:49:35.757Z,96863.78
2023-03-26T16:54:48.877Z,96854.47
2023-03-26T17:00:30.017Z,96860.66
2023-03-26T17:05:54.617Z,96856.41
2023-03-26T17:10:59.688Z,96863.78
2023-03-26T17:16:23.919Z,96860.28
2023-03-26T17:22:10.420Z,96865.28
2023-03-26T17:27:50.186Z,96868.41
2023-03-26T17:33:00.025Z,96873.06
2023-03-26T17:38:02.639Z,96873.88
2023-03-26T17:43:11.544Z,96876.59
2023-03-26T17:48:21.878Z,96876.94
2023-03-26T17:53:31.216Z,96883.16
2023-03-26T17:58:42.717Z,96883.91
2023-03-26T18:03:49.545Z,96888.97
2023-03-26T18:09:33.601Z,96884.69
2023-03-26T18:14:41.329Z,96893.22
2023-03-26T18:19:54.774Z,96894.00
2023-03-26T18:25:02.517Z,96893.25
2023-03-26T18:30:18.036Z,96893.63
2023-03-26T18:35:21.979Z,96888.59
2023-03-26T18:40:27.462Z,96886.28
2023-03-26T18:45:42.193Z,96887.81
2023-03-26T18:50:45.361Z,96882.78
2023-03-26T18:55:50.594Z,96875.81
2023-03-26T19:00:59.686Z,96874.66
2023-03-26T19:06:04.737Z,96868.47
2023-03-26T19:11:09.039Z,96866.13
2023-03-26T19:16:33.866Z,96861.50
2023-03-26T19:21:36.614Z,96851.81
2023-03-26T19:26:38.619Z,96860.69
2023-03-26T19:31:41.156Z,96851.03
2023-03-26T19:37:04.248Z,96843.66
2023-03-26T19:42:12.457Z,96832.84
2023-03-26T19:47:39.113Z,96823.56
2023-03-26T19:52:48.079Z,96819.66
2023-03-26T19:57:51.740Z,96821.19
2023-03-26T20:02:53.684Z,96816.59
2023-03-26T20:08:01.805Z,96800.31
2023-03-26T20:13:03.610Z,96801.09
2023-03-26T20:18:05.754Z,96798.75
2023-03-26T20:23:14.605Z,96787.94
2023-03-26T20:28:19.185Z,96791.81
2023-03-26T20:33:26.835Z,96780.97
2023-03-26T20:38:38.731Z,96791.03
2023-03-26T20:43:42.539Z,96789.88
2023-03-26T20:48:45.632Z,96784.81
2023-03-26T20:53:48.287Z,96771.69
2023-03-26T20:58:54.659Z,96773.22
2023-03-26T21:04:04.386Z,96770.88
2023-03-26T21:09:06.766Z,96765.06
2023-03-26T21:14:25.272Z,96768.56
2023-03-26T21:19:27.531Z,96770.09
2023-03-26T21:24:41.902Z,96778.19
2023-03-26T21:29:43.934Z,96780.84
2023-03-26T21:34:55.764Z,96797.47
2023-03-26T21:40:01.734Z,96808.72
2023-03-26T21:45:04.225Z,96821.06
2023-03-26T21:50:07.475Z,96824.97
2023-03-26T21:55:11.557Z,96835.03
2023-03-26T22:00:20.809Z,96821.91
2023-03-26T22:05:34.304Z,96819.53
2023-03-26T22:10:37.161Z,96821.84
2023-03-26T22:15:38.969Z,96818.75
2023-03-26T22:20:42.746Z,96823.44
2023-03-26T22:25:45.554Z,96819.56
2023-03-26T22:30:47.482Z,96816.09
2023-03-26T22:35:49.309Z,96819.53
2023-03-26T22:40:56.870Z,96818.00
2023-03-26T22:45:59.047Z,96822.53
2023-03-26T22:51:06.631Z,96816.31
2023-03-26T22:56:08.950Z,96820.13
2023-03-26T23:01:15.040Z,96823.50
2023-03-26T23:06:17.208Z,96825.44
2023-03-26T23:11:21.969Z,96823.06
2023-03-26T23:16:23.976Z,96833.13
2023-03-26T23:21:25.799Z,96824.59
2023-03-26T23:26:34.977Z,96832.72
2023-03-26T23:31:42.073Z,96845.50
2023-03-26T23:36:44.885Z,96841.63
2023-03-26T23:41:46.695Z,96850.16
2023-03-26T23:46:48.626Z,96848.59
2023-03-26T23:51:52.180Z,96854.34
2023-03-26T23:56:55.048Z,96850.50
